sensor_id;sensor_type;location;lat;lon;timestamp;pressure;altitude;pressure_sealevel;temperature;humidity
59110;BME280;44895;47.438;18.978;2022-08-25T00:00:01;100114.50;;;19.17;100.00
59110;BME280;44895;47.438;18.978;2022-08-25T00:03:09;100115.63;;;19.16;100.00
59110;BME280;44895;47.438;18.978;2022-08-25T00:06:13;100109.13;;;19.09;100.00
59110;BME280;44895;47.438;18.978;2022-08-25T00:09:20;100114.06;;;19.15;100.00
59110;BME280;44895;47.438;18.978;2022-08-25T00:12:24;100112.78;;;19.13;100.00
59110;BME280;44895;47.438;18.978;2022-08-25T00:15:29;100111.75;;;19.17;100.00
59110;BME280;44895;47.438;18.978;2022-08-25T00:18:38;100110.03;;;19.13;100.00
59110;BME280;44895;47.438;18.978;2022-08-25T00:21:43;100102.22;;;19.15;100.00
59110;BME280;44895;47.438;18.978;2022-08-25T00:24:47;100104.31;;;19.18;100.00
59110;BME280;44895;47.438;18.978;2022-08-25T00:27:51;100101.19;;;19.19;100.00
59110;BME280;44895;47.438;18.978;2022-08-25T00:30:55;100105.09;;;19.18;100.00
59110;BME280;44895;47.438;18.978;2022-08-25T00:33:59;100109.50;;;19.07;100.00
59110;BME280;44895;47.438;18.978;2022-08-25T00:37:05;100100.25;;;18.99;100.00
59110;BME280;44895;47.438;18.978;2022-08-25T00:40:10;100105.50;;;19.04;100.00
59110;BME280;44895;47.438;18.978;2022-08-25T00:43:16;100099.91;;;18.88;100.00
59110;BME280;44895;47.438;18.978;2022-08-25T00:46:28;100098.78;;;18.77;100.00
59110;BME280;44895;47.438;18.978;2022-08-25T00:49:42;100112.34;;;18.70;100.00
59110;BME280;44895;47.438;18.978;2022-08-25T00:52:50;100099.09;;;18.88;100.00
59110;BME280;44895;47.438;18.978;2022-08-25T00:55:54;100107.16;;;18.93;100.00
59110;BME280;44895;47.438;18.978;2022-08-25T00:58:58;100097.50;;;18.87;100.00
59110;BME280;44895;47.438;18.978;2022-08-25T01:02:03;100100.38;;;18.90;100.00
59110;BME280;44895;47.438;18.978;2022-08-25T01:05:08;100101.59;;;18.65;100.00
59110;BME280;44895;47.438;18.978;2022-08-25T01:08:12;100096.41;;;18.75;100.00
59110;BME280;44895;47.438;18.978;2022-08-25T01:11:16;100098.91;;;18.81;100.00
59110;BME280;44895;47.438;18.978;2022-08-25T01:14:21;100086.38;;;18.83;100.00
59110;BME280;44895;47.438;18.978;2022-08-25T01:17:47;100096.59;;;18.83;100.00
59110;BME280;44895;47.438;18.978;2022-08-25T01:20:57;100099.25;;;18.79;100.00
59110;BME280;44895;47.438;18.978;2022-08-25T01:24:00;100102.97;;;18.58;100.00
59110;BME280;44895;47.438;18.978;2022-08-25T01:27:05;100101.38;;;18.57;100.00
59110;BME280;44895;47.438;18.978;2022-08-25T01:30:09;100093.09;;;18.70;100.00
59110;BME280;44895;47.438;18.978;2022-08-25T01:33:13;100091.50;;;18.69;100.00
59110;BME280;44895;47.438;18.978;2022-08-25T01:36:18;100084.03;;;18.69;100.00
59110;BME280;44895;47.438;18.978;2022-08-25T01:39:24;100092.09;;;18.62;100.00
59110;BME280;44895;47.438;18.978;2022-08-25T01:42:37;100092.09;;;18.62;100.00
59110;BME280;44895;47.438;18.978;2022-08-25T01:45:46;100089.41;;;18.66;100.00
59110;BME280;44895;47.438;18.978;2022-08-25T01:48:50;100096.53;;;18.67;100.00
59110;BME280;44895;47.438;18.978;2022-08-25T01:52:05;100100.47;;;18.53;100.00
59110;BME280;44895;47.438;18.978;2022-08-25T01:55:11;100097.03;;;18.56;100.00
59110;BME280;44895;47.438;18.978;2022-08-25T01:58:19;100095.66;;;18.50;100.00
59110;BME280;44895;47.438;18.978;2022-08-25T02:01:24;100091.88;;;18.55;100.00
59110;BME280;44895;47.438;18.978;2022-08-25T02:04:28;100091.97;;;18.58;100.00
59110;BME280;44895;47.438;18.978;2022-08-25T02:07:35;100092.91;;;18.50;100.00
59110;BME280;44895;47.438;18.978;2022-08-25T02:10:39;100079.66;;;18.40;100.00
59110;BME280;44895;47.438;18.978;2022-08-25T02:13:43;100084.34;;;18.39;100.00
59110;BME280;44895;47.438;18.978;2022-08-25T02:16:50;100085.47;;;18.51;100.00
59110;BME280;44895;47.438;18.978;2022-08-25T02:19:54;100085.38;;;18.47;100.00
59110;BME280;44895;47.438;18.978;2022-08-25T02:22:59;100084.66;;;18.50;100.00
59110;BME280;44895;47.438;18.978;2022-08-25T02:26:03;100082.38;;;18.40;100.00
59110;BME280;44895;47.438;18.978;2022-08-25T02:29:07;100077.13;;;18.35;100.00
59110;BME280;44895;47.438;18.978;2022-08-25T02:32:11;100082.75;;;18.38;100.00
59110;BME280;44895;47.438;18.978;2022-08-25T02:35:15;100079.09;;;18.34;100.00
59110;BME280;44895;47.438;18.978;2022-08-25T02:38:19;100083.34;;;18.32;100.00
59110;BME280;44895;47.438;18.978;2022-08-25T02:41:24;100083.34;;;18.32;100.00
59110;BME280;44895;47.438;18.978;2022-08-25T02:44:29;100071.28;;;18.24;100.00
59110;BME280;44895;47.438;18.978;2022-08-25T02:47:34;100064.31;;;18.26;100.00
59110;BME280;44895;47.438;18.978;2022-08-25T02:50:39;100069.91;;;18.30;100.00
59110;BME280;44895;47.438;18.978;2022-08-25T02:53:44;100075.75;;;18.29;100.00
59110;BME280;44895;47.438;18.978;2022-08-25T02:56:50;100075.75;;;18.29;100.00
59110;BME280;44895;47.438;18.978;2022-08-25T02:59:54;100071.66;;;18.22;100.00
59110;BME280;44895;47.438;18.978;2022-08-25T03:02:57;100078.97;;;18.31;100.00
59110;BME280;44895;47.438;18.978;2022-08-25T03:06:01;100075.41;;;18.30;100.00
59110;BME280;44895;47.438;18.978;2022-08-25T03:09:06;100069.13;;;18.30;100.00
59110;BME280;44895;47.438;18.978;2022-08-25T03:12:10;100072.13;;;18.24;100.00
59110;BME280;44895;47.438;18.978;2022-08-25T03:15:15;100070.97;;;18.25;100.00
59110;BME280;44895;47.438;18.978;2022-08-25T03:18:19;100062.38;;;18.27;100.00
59110;BME280;44895;47.438;18.978;2022-08-25T03:21:22;100060.47;;;18.03;100.00
59110;BME280;44895;47.438;18.978;2022-08-25T03:24:27;100050.72;;;18.05;100.00
59110;BME280;44895;47.438;18.978;2022-08-25T03:27:30;100063.31;;;18.06;100.00
59110;BME280;44895;47.438;18.978;2022-08-25T03:30:34;100071.78;;;18.14;100.00
59110;BME280;44895;47.438;18.978;2022-08-25T03:33:38;100073.03;;;18.16;100.00
59110;BME280;44895;47.438;18.978;2022-08-25T03:36:43;100068.81;;;18.06;100.00
59110;BME280;44895;47.438;18.978;2022-08-25T03:39:48;100070.16;;;18.13;100.00
59110;BME280;44895;47.438;18.978;2022-08-25T03:42:52;100075.81;;;18.04;100.00
59110;BME280;44895;47.438;18.978;2022-08-25T03:45:57;100073.84;;;18.04;100.00
59110;BME280;44895;47.438;18.978;2022-08-25T03:49:02;100069.59;;;17.95;100.00
59110;BME280;44895;47.438;18.978;2022-08-25T03:52:07;100065.03;;;17.99;100.00
59110;BME280;44895;47.438;18.978;2022-08-25T03:55:12;100064.91;;;18.07;100.00
59110;BME280;44895;47.438;18.978;2022-08-25T03:58:17;100067.53;;;17.91;100.00
59110;BME280;44895;47.438;18.978;2022-08-25T04:01:22;100069.81;;;17.77;100.00
59110;BME280;44895;47.438;18.978;2022-08-25T04:04:26;100071.06;;;17.92;100.00
59110;BME280;44895;47.438;18.978;2022-08-25T04:07:29;100076.56;;;17.92;100.00
59110;BME280;44895;47.438;18.978;2022-08-25T04:10:35;100078.41;;;17.88;100.00
59110;BME280;44895;47.438;18.978;2022-08-25T04:13:40;100079.63;;;17.66;100.00
59110;BME280;44895;47.438;18.978;2022-08-25T04:16:50;100088.38;;;17.92;100.00
59110;BME280;44895;47.438;18.978;2022-08-25T04:19:55;100085.31;;;17.94;100.00
59110;BME280;44895;47.438;18.978;2022-08-25T04:22:59;100077.50;;;17.96;100.00
59110;BME280;44895;47.438;18.978;2022-08-25T04:26:11;100087.13;;;17.90;100.00
59110;BME280;44895;47.438;18.978;2022-08-25T04:29:19;100080.84;;;18.14;100.00
59110;BME280;44895;47.438;18.978;2022-08-25T04:32:23;100080.38;;;18.12;100.00
59110;BME280;44895;47.438;18.978;2022-08-25T04:35:27;100079.22;;;18.13;100.00
59110;BME280;44895;47.438;18.978;2022-08-25T04:38:32;100087.94;;;18.15;100.00
59110;BME280;44895;47.438;18.978;2022-08-25T04:41:35;100084.84;;;18.29;100.00
59110;BME280;44895;47.438;18.978;2022-08-25T04:44:39;100076.78;;;18.36;100.00
59110;BME280;44895;47.438;18.978;2022-08-25T04:47:44;100077.66;;;18.53;100.00
59110;BME280;44895;47.438;18.978;2022-08-25T04:50:47;100079.75;;;18.44;100.00
59110;BME280;44895;47.438;18.978;2022-08-25T04:53:52;100082.13;;;18.57;100.00
59110;BME280;44895;47.438;18.978;2022-08-25T04:56:56;100074.88;;;18.65;100.00
59110;BME280;44895;47.438;18.978;2022-08-25T05:00:00;100079.47;;;18.73;100.00
59110;BME280;44895;47.438;18.978;2022-08-25T05:03:05;100075.72;;;18.94;100.00
59110;BME280;44895;47.438;18.978;2022-08-25T05:06:09;100081.19;;;19.06;100.00
59110;BME280;44895;47.438;18.978;2022-08-25T05:09:13;100086.59;;;19.19;100.00
59110;BME280;44895;47.438;18.978;2022-08-25T05:12:17;100081.97;;;19.07;100.00
59110;BME280;44895;47.438;18.978;2022-08-25T05:15:21;100082.59;;;19.16;100.00
59110;BME280;44895;47.438;18.978;2022-08-25T05:18:43;100073.50;;;19.28;100.00
59110;BME280;44895;47.438;18.978;2022-08-25T05:21:47;100084.16;;;19.30;100.00
59110;BME280;44895;47.438;18.978;2022-08-25T05:24:51;100083.47;;;19.49;100.00
59110;BME280;44895;47.438;18.978;2022-08-25T05:27:54;100078.94;;;19.56;100.00
59110;BME280;44895;47.438;18.978;2022-08-25T05:31:00;100080.97;;;19.76;100.00
59110;BME280;44895;47.438;18.978;2022-08-25T05:34:05;100080.19;;;19.75;100.00
59110;BME280;44895;47.438;18.978;2022-08-25T05:37:09;100080.13;;;19.87;100.00
59110;BME280;44895;47.438;18.978;2022-08-25T05:40:13;100075.69;;;19.99;100.00
59110;BME280;44895;47.438;18.978;2022-08-25T05:43:17;100079.75;;;20.05;100.00
59110;BME280;44895;47.438;18.978;2022-08-25T05:46:21;100073.47;;;20.24;100.00
59110;BME280;44895;47.438;18.978;2022-08-25T05:49:25;100068.09;;;20.47;100.00
59110;BME280;44895;47.438;18.978;2022-08-25T05:52:29;100064.84;;;20.61;100.00
59110;BME280;44895;47.438;18.978;2022-08-25T05:55:33;100058.09;;;20.78;100.00
59110;BME280;44895;47.438;18.978;2022-08-25T05:58:40;100056.94;;;20.99;100.00
59110;BME280;44895;47.438;18.978;2022-08-25T06:01:43;100058.06;;;21.17;100.00
59110;BME280;44895;47.438;18.978;2022-08-25T06:05:24;100058.88;;;21.41;100.00
59110;BME280;44895;47.438;18.978;2022-08-25T06:08:28;100053.28;;;21.57;100.00
59110;BME280;44895;47.438;18.978;2022-08-25T06:11:36;100067.91;;;21.85;100.00
59110;BME280;44895;47.438;18.978;2022-08-25T06:14:40;100054.34;;;22.29;100.00
59110;BME280;44895;47.438;18.978;2022-08-25T06:17:44;100068.47;;;23.57;100.00
59110;BME280;44895;47.438;18.978;2022-08-25T06:20:48;100070.50;;;24.86;100.00
59110;BME280;44895;47.438;18.978;2022-08-25T06:23:52;100062.28;;;25.80;100.00
59110;BME280;44895;47.438;18.978;2022-08-25T06:26:56;100068.88;;;26.65;100.00
59110;BME280;44895;47.438;18.978;2022-08-25T06:30:00;100076.88;;;27.34;100.00
59110;BME280;44895;47.438;18.978;2022-08-25T06:33:07;100071.19;;;28.01;100.00
59110;BME280;44895;47.438;18.978;2022-08-25T06:36:11;100084.88;;;28.64;100.00
59110;BME280;44895;47.438;18.978;2022-08-25T06:39:15;100087.66;;;29.26;94.35
59110;BME280;44895;47.438;18.978;2022-08-25T06:42:19;100085.91;;;29.64;90.83
59110;BME280;44895;47.438;18.978;2022-08-25T06:45:23;100084.50;;;30.23;87.02
59110;BME280;44895;47.438;18.978;2022-08-25T06:48:26;100086.91;;;30.65;82.69
59110;BME280;44895;47.438;18.978;2022-08-25T06:51:31;100082.66;;;31.13;79.48
59110;BME280;44895;47.438;18.978;2022-08-25T06:54:35;100085.84;;;31.32;76.11
59110;BME280;44895;47.438;18.978;2022-08-25T06:57:38;100090.88;;;31.57;75.27
59110;BME280;44895;47.438;18.978;2022-08-25T07:00:42;100086.06;;;31.74;72.70
59110;BME280;44895;47.438;18.978;2022-08-25T07:03:47;100089.56;;;31.09;69.99
59110;BME280;44895;47.438;18.978;2022-08-25T07:06:51;100084.19;;;30.98;74.67
59110;BME280;44895;47.438;18.978;2022-08-25T07:09:55;100083.75;;;30.39;71.15
59110;BME280;44895;47.438;18.978;2022-08-25T07:12:59;100086.84;;;29.26;76.15
59110;BME280;44895;47.438;18.978;2022-08-25T07:16:04;100092.09;;;29.75;77.20
59110;BME280;44895;47.438;18.978;2022-08-25T07:19:09;100091.84;;;28.49;78.64
59110;BME280;44895;47.438;18.978;2022-08-25T07:22:13;100082.44;;;29.01;79.43
59110;BME280;44895;47.438;18.978;2022-08-25T07:25:16;100088.78;;;28.74;77.15
59110;BME280;44895;47.438;18.978;2022-08-25T07:28:21;100091.59;;;28.71;78.65
59110;BME280;44895;47.438;18.978;2022-08-25T07:31:25;100082.28;;;28.81;79.73
59110;BME280;44895;47.438;18.978;2022-08-25T07:34:30;100081.91;;;29.10;76.61
59110;BME280;44895;47.438;18.978;2022-08-25T07:37:54;100087.75;;;29.19;77.75
59110;BME280;44895;47.438;18.978;2022-08-25T07:41:02;100087.41;;;28.86;80.85
59110;BME280;44895;47.438;18.978;2022-08-25T07:44:07;100087.66;;;28.68;77.82
59110;BME280;44895;47.438;18.978;2022-08-25T07:47:11;100087.00;;;28.88;76.87
59110;BME280;44895;47.438;18.978;2022-08-25T07:50:15;100077.63;;;29.02;76.75
59110;BME280;44895;47.438;18.978;2022-08-25T07:53:18;100076.31;;;28.79;77.97
59110;BME280;44895;47.438;18.978;2022-08-25T07:56:22;100082.47;;;28.98;76.24
59110;BME280;44895;47.438;18.978;2022-08-25T07:59:26;100080.78;;;29.04;73.21
59110;BME280;44895;47.438;18.978;2022-08-25T08:02:30;100076.84;;;29.28;71.67
59110;BME280;44895;47.438;18.978;2022-08-25T08:05:35;100081.31;;;28.95;70.83
59110;BME280;44895;47.438;18.978;2022-08-25T08:08:40;100085.81;;;28.85;71.47
59110;BME280;44895;47.438;18.978;2022-08-25T08:11:48;100080.44;;;28.71;72.92
59110;BME280;44895;47.438;18.978;2022-08-25T08:14:52;100077.72;;;28.60;72.92
59110;BME280;44895;47.438;18.978;2022-08-25T08:17:57;100086.81;;;28.33;74.43
59110;BME280;44895;47.438;18.978;2022-08-25T08:21:01;100088.28;;;28.45;72.97
59110;BME280;44895;47.438;18.978;2022-08-25T08:24:05;100080.28;;;28.47;74.42
59110;BME280;44895;47.438;18.978;2022-08-25T08:27:11;100077.66;;;28.33;74.71
59110;BME280;44895;47.438;18.978;2022-08-25T08:30:15;100075.91;;;28.08;75.43
59110;BME280;44895;47.438;18.978;2022-08-25T08:33:20;100073.91;;;28.08;74.56
59110;BME280;44895;47.438;18.978;2022-08-25T08:36:24;100068.81;;;27.99;75.93
59110;BME280;44895;47.438;18.978;2022-08-25T08:39:29;100078.94;;;27.79;76.35
59110;BME280;44895;47.438;18.978;2022-08-25T08:42:55;100078.03;;;27.93;77.12
59110;BME280;44895;47.438;18.978;2022-08-25T08:46:06;100077.56;;;28.40;74.77
59110;BME280;44895;47.438;18.978;2022-08-25T08:49:24;100076.84;;;28.32;74.40
59110;BME280;44895;47.438;18.978;2022-08-25T08:52:52;100068.28;;;28.12;75.04
59110;BME280;44895;47.438;18.978;2022-08-25T08:56:00;100071.72;;;28.27;73.69
59110;BME280;44895;47.438;18.978;2022-08-25T08:59:14;100070.69;;;28.13;73.97
59110;BME280;44895;47.438;18.978;2022-08-25T09:02:28;100067.72;;;27.86;74.51
59110;BME280;44895;47.438;18.978;2022-08-25T09:05:58;100067.69;;;27.90;75.67
59110;BME280;44895;47.438;18.978;2022-08-25T09:09:04;100062.59;;;27.81;75.66
59110;BME280;44895;47.438;18.978;2022-08-25T09:15:44;100057.72;;;27.92;76.91
59110;BME280;44895;47.438;18.978;2022-08-25T09:29:09;100041.44;;;27.83;76.98
59110;BME280;44895;47.438;18.978;2022-08-25T09:32:14;100038.75;;;27.73;76.48
59110;BME280;44895;47.438;18.978;2022-08-25T09:35:22;100039.09;;;27.82;75.25
59110;BME280;44895;47.438;18.978;2022-08-25T09:38:28;100030.31;;;27.80;73.77
59110;BME280;44895;47.438;18.978;2022-08-25T09:41:47;100024.06;;;27.69;73.75
59110;BME280;44895;47.438;18.978;2022-08-25T09:44:51;100024.31;;;27.81;75.33
59110;BME280;44895;47.438;18.978;2022-08-25T09:47:55;100021.50;;;27.85;74.24
59110;BME280;44895;47.438;18.978;2022-08-25T09:51:01;100010.31;;;27.89;74.73
59110;BME280;44895;47.438;18.978;2022-08-25T10:00:37;100000.75;;;27.90;71.89
59110;BME280;44895;47.438;18.978;2022-08-25T10:04:02;100002.66;;;27.96;70.48
59110;BME280;44895;47.438;18.978;2022-08-25T10:07:27;100002.22;;;27.98;72.04
59110;BME280;44895;47.438;18.978;2022-08-25T10:10:33;100003.81;;;27.99;69.81
59110;BME280;44895;47.438;18.978;2022-08-25T10:13:44;100001.00;;;28.03;69.25
59110;BME280;44895;47.438;18.978;2022-08-25T10:16:49;99995.03;;;28.00;67.48
59110;BME280;44895;47.438;18.978;2022-08-25T10:20:18;99989.44;;;28.04;68.72
59110;BME280;44895;47.438;18.978;2022-08-25T10:23:25;99985.84;;;28.07;68.41
59110;BME280;44895;47.438;18.978;2022-08-25T10:33:42;99978.47;;;28.21;65.72
59110;BME280;44895;47.438;18.978;2022-08-25T10:40:24;99968.81;;;28.29;65.03
59110;BME280;44895;47.438;18.978;2022-08-25T10:43:50;99973.09;;;28.37;64.91
59110;BME280;44895;47.438;18.978;2022-08-25T10:50:40;99964.91;;;28.54;65.48
59110;BME280;44895;47.438;18.978;2022-08-25T11:00:19;99953.97;;;28.67;64.50
59110;BME280;44895;47.438;18.978;2022-08-25T11:07:12;99944.66;;;28.77;63.51
59110;BME280;44895;47.438;18.978;2022-08-25T11:13:48;99944.28;;;28.75;62.40
59110;BME280;44895;47.438;18.978;2022-08-25T11:20:11;99933.03;;;28.51;60.67
59110;BME280;44895;47.438;18.978;2022-08-25T11:23:22;99930.41;;;28.68;60.00
59110;BME280;44895;47.438;18.978;2022-08-25T11:26:29;99918.13;;;28.89;62.06
59110;BME280;44895;47.438;18.978;2022-08-25T11:29:37;99915.38;;;28.85;64.46
59110;BME280;44895;47.438;18.978;2022-08-25T11:32:47;99911.75;;;28.88;61.94
59110;BME280;44895;47.438;18.978;2022-08-25T11:35:58;99904.09;;;28.92;60.98
59110;BME280;44895;47.438;18.978;2022-08-25T11:42:58;99893.88;;;29.06;59.95
59110;BME280;44895;47.438;18.978;2022-08-25T11:52:44;99883.09;;;29.32;59.80
59110;BME280;44895;47.438;18.978;2022-08-25T11:55:51;99881.59;;;29.23;57.94
59110;BME280;44895;47.438;18.978;2022-08-25T11:58:56;99878.81;;;29.23;57.18
59110;BME280;44895;47.438;18.978;2022-08-25T12:02:00;99880.47;;;29.44;57.61
59110;BME280;44895;47.438;18.978;2022-08-25T12:11:56;99871.03;;;29.35;55.91
59110;BME280;44895;47.438;18.978;2022-08-25T12:15:19;99870.56;;;29.40;57.25
59110;BME280;44895;47.438;18.978;2022-08-25T12:18:39;99864.81;;;29.47;57.99
59110;BME280;44895;47.438;18.978;2022-08-25T12:21:44;99871.50;;;29.53;58.29
59110;BME280;44895;47.438;18.978;2022-08-25T12:25:00;99863.19;;;29.50;57.51
59110;BME280;44895;47.438;18.978;2022-08-25T12:28:43;99860.94;;;29.41;57.92
59110;BME280;44895;47.438;18.978;2022-08-25T12:41:51;99845.91;;;29.55;58.32
59110;BME280;44895;47.438;18.978;2022-08-25T12:57:42;99838.50;;;29.44;55.53
59110;BME280;44895;47.438;18.978;2022-08-25T13:00:56;99834.28;;;29.56;54.97
59110;BME280;44895;47.438;18.978;2022-08-25T13:14:17;99835.34;;;29.63;53.78
59110;BME280;44895;47.438;18.978;2022-08-25T13:17:34;99829.63;;;29.50;53.84
59110;BME280;44895;47.438;18.978;2022-08-25T13:20:37;99831.28;;;29.23;54.09
59110;BME280;44895;47.438;18.978;2022-08-25T13:23:44;99827.13;;;29.11;56.17
59110;BME280;44895;47.438;18.978;2022-08-25T13:26:53;99824.59;;;29.17;56.00
59110;BME280;44895;47.438;18.978;2022-08-25T13:29:58;99820.97;;;29.20;54.64
59110;BME280;44895;47.438;18.978;2022-08-25T13:33:19;99816.09;;;29.24;56.32
59110;BME280;44895;47.438;18.978;2022-08-25T13:36:26;99812.53;;;29.24;53.73
59110;BME280;44895;47.438;18.978;2022-08-25T13:39:49;99813.19;;;29.32;56.99
59110;BME280;44895;47.438;18.978;2022-08-25T13:42:57;99810.50;;;29.24;58.92
59110;BME280;44895;47.438;18.978;2022-08-25T13:46:02;99804.06;;;29.27;55.78
59110;BME280;44895;47.438;18.978;2022-08-25T13:49:07;99804.47;;;29.26;58.37
59110;BME280;44895;47.438;18.978;2022-08-25T13:52:27;99812.94;;;29.22;56.75
59110;BME280;44895;47.438;18.978;2022-08-25T13:55:59;99809.91;;;29.13;56.68
59110;BME280;44895;47.438;18.978;2022-08-25T13:59:05;99815.28;;;29.04;57.75
59110;BME280;44895;47.438;18.978;2022-08-25T14:02:49;99803.03;;;28.98;58.00
59110;BME280;44895;47.438;18.978;2022-08-25T14:09:17;99800.44;;;29.07;58.76
59110;BME280;44895;47.438;18.978;2022-08-25T14:12:44;99797.00;;;28.99;56.66
59110;BME280;44895;47.438;18.978;2022-08-25T14:15:48;99804.84;;;28.84;58.72
59110;BME280;44895;47.438;18.978;2022-08-25T14:18:55;99797.88;;;28.72;59.41
59110;BME280;44895;47.438;18.978;2022-08-25T14:22:00;99795.13;;;28.69;60.84
59110;BME280;44895;47.438;18.978;2022-08-25T14:25:05;99796.22;;;28.75;61.82
59110;BME280;44895;47.438;18.978;2022-08-25T14:28:18;99795.75;;;28.80;59.54
59110;BME280;44895;47.438;18.978;2022-08-25T14:31:32;99793.56;;;28.68;59.88
59110;BME280;44895;47.438;18.978;2022-08-25T14:34:36;99783.84;;;28.76;58.15
59110;BME280;44895;47.438;18.978;2022-08-25T14:37:42;99783.78;;;28.79;58.57
59110;BME280;44895;47.438;18.978;2022-08-25T14:40:47;99782.63;;;28.77;58.66
59110;BME280;44895;47.438;18.978;2022-08-25T14:43:51;99786.22;;;28.77;59.25
59110;BME280;44895;47.438;18.978;2022-08-25T14:46:55;99781.16;;;28.69;59.92
59110;BME280;44895;47.438;18.978;2022-08-25T14:50:00;99785.97;;;28.68;59.95
59110;BME280;44895;47.438;18.978;2022-08-25T14:53:04;99782.06;;;28.62;61.34
59110;BME280;44895;47.438;18.978;2022-08-25T14:56:08;99774.94;;;28.57;61.40
59110;BME280;44895;47.438;18.978;2022-08-25T14:59:12;99774.88;;;28.61;62.18
59110;BME280;44895;47.438;18.978;2022-08-25T15:02:16;99774.84;;;28.64;61.73
59110;BME280;44895;47.438;18.978;2022-08-25T15:05:24;99776.47;;;28.62;60.68
59110;BME280;44895;47.438;18.978;2022-08-25T15:08:29;99782.53;;;28.57;62.10
59110;BME280;44895;47.438;18.978;2022-08-25T15:11:54;99771.91;;;28.48;62.91
59110;BME280;44895;47.438;18.978;2022-08-25T15:14:58;99769.25;;;28.64;60.97
59110;BME280;44895;47.438;18.978;2022-08-25T15:18:01;99774.28;;;28.50;63.07
59110;BME280;44895;47.438;18.978;2022-08-25T15:21:05;99782.22;;;28.51;62.51
59110;BME280;44895;47.438;18.978;2022-08-25T15:24:10;99780.72;;;28.46;62.09
59110;BME280;44895;47.438;18.978;2022-08-25T15:27:14;99774.72;;;28.48;61.52
59110;BME280;44895;47.438;18.978;2022-08-25T15:30:21;99775.25;;;28.39;63.14
59110;BME280;44895;47.438;18.978;2022-08-25T15:33:24;99768.94;;;28.35;63.85
59110;BME280;44895;47.438;18.978;2022-08-25T15:36:29;99773.41;;;28.29;62.75
59110;BME280;44895;47.438;18.978;2022-08-25T15:39:33;99763.88;;;28.26;62.44
59110;BME280;44895;47.438;18.978;2022-08-25T15:42:37;99756.72;;;28.25;62.52
59110;BME280;44895;47.438;18.978;2022-08-25T15:45:40;99759.47;;;28.29;62.57
59110;BME280;44895;47.438;18.978;2022-08-25T15:48:44;99756.34;;;28.23;62.01
59110;BME280;44895;47.438;18.978;2022-08-25T15:51:48;99746.03;;;28.20;65.03
59110;BME280;44895;47.438;18.978;2022-08-25T15:54:52;99742.16;;;28.14;64.86
59110;BME280;44895;47.438;18.978;2022-08-25T15:57:55;99749.78;;;28.10;66.41
59110;BME280;44895;47.438;18.978;2022-08-25T16:00:59;99745.38;;;28.12;67.21
59110;BME280;44895;47.438;18.978;2022-08-25T16:04:03;99742.75;;;28.25;65.36
59110;BME280;44895;47.438;18.978;2022-08-25T16:07:06;99738.97;;;28.12;65.99
59110;BME280;44895;47.438;18.978;2022-08-25T16:10:10;99739.09;;;28.05;68.07
59110;BME280;44895;47.438;18.978;2022-08-25T16:13:14;99734.81;;;27.96;69.72
59110;BME280;44895;47.438;18.978;2022-08-25T16:16:20;99739.66;;;27.92;69.78
59110;BME280;44895;47.438;18.978;2022-08-25T16:19:26;99737.16;;;27.98;70.62
59110;BME280;44895;47.438;18.978;2022-08-25T16:22:29;99732.50;;;27.91;71.82
59110;BME280;44895;47.438;18.978;2022-08-25T16:25:38;99734.91;;;27.89;71.96
59110;BME280;44895;47.438;18.978;2022-08-25T16:28:41;99737.28;;;27.91;72.37
59110;BME280;44895;47.438;18.978;2022-08-25T16:31:47;99735.41;;;27.80;73.76
59110;BME280;44895;47.438;18.978;2022-08-25T16:34:51;99737.84;;;27.78;74.45
59110;BME280;44895;47.438;18.978;2022-08-25T16:37:55;99737.16;;;27.71;74.35
59110;BME280;44895;47.438;18.978;2022-08-25T16:40:59;99734.78;;;27.69;75.64
59110;BME280;44895;47.438;18.978;2022-08-25T16:44:04;99738.13;;;27.60;75.04
59110;BME280;44895;47.438;18.978;2022-08-25T16:47:09;99738.88;;;27.61;74.76
59110;BME280;44895;47.438;18.978;2022-08-25T16:50:14;99737.31;;;27.60;75.40
59110;BME280;44895;47.438;18.978;2022-08-25T16:53:18;99735.41;;;27.53;75.59
59110;BME280;44895;47.438;18.978;2022-08-25T16:56:41;99745.44;;;27.47;76.49
59110;BME280;44895;47.438;18.978;2022-08-25T16:59:45;99747.13;;;27.37;78.35
59110;BME280;44895;47.438;18.978;2022-08-25T17:02:51;99751.19;;;27.32;78.36
59110;BME280;44895;47.438;18.978;2022-08-25T17:05:58;99756.84;;;27.22;81.96
59110;BME280;44895;47.438;18.978;2022-08-25T17:09:02;99755.38;;;27.13;82.47
59110;BME280;44895;47.438;18.978;2022-08-25T17:12:07;99758.22;;;27.06;84.40
59110;BME280;44895;47.438;18.978;2022-08-25T17:15:11;99761.09;;;26.99;84.35
59110;BME280;44895;47.438;18.978;2022-08-25T17:18:15;99757.16;;;26.93;83.88
59110;BME280;44895;47.438;18.978;2022-08-25T17:21:19;99762.41;;;26.87;87.31
59110;BME280;44895;47.438;18.978;2022-08-25T17:24:23;99762.47;;;26.80;86.18
59110;BME280;44895;47.438;18.978;2022-08-25T17:27:28;99759.34;;;26.74;88.66
59110;BME280;44895;47.438;18.978;2022-08-25T17:30:31;99767.75;;;26.67;89.19
59110;BME280;44895;47.438;18.978;2022-08-25T17:33:35;99764.59;;;26.61;89.28
59110;BME280;44895;47.438;18.978;2022-08-25T17:36:39;99765.03;;;26.56;89.76
59110;BME280;44895;47.438;18.978;2022-08-25T17:39:43;99772.25;;;26.50;90.90
59110;BME280;44895;47.438;18.978;2022-08-25T17:42:47;99763.56;;;26.44;93.77
59110;BME280;44895;47.438;18.978;2022-08-25T17:45:52;99768.41;;;26.33;96.02
59110;BME280;44895;47.438;18.978;2022-08-25T17:48:56;99772.88;;;26.19;97.23